Wiesbaden, Germany

2:21 AM CET on December 21, 2014 (GMT +0100)
Wiesbaden Army Air Field | Change Station
CLOSE
Current Station
Airport
Location: Wiesbaden,
Elevation: 459 ft
Nearby Weather Stations

Elev 459 ft 50.05 °N, 8.33 °E | Updated 23 minutes ago

Clear
Clear
38 °F
Feels Like 32 °F
N
9
Wind Variable Wind from West

Today
High -- | Low -- °F
--% Chance of Precip.
Yesterday
High -- | Low -- °F
Precip. -- in
8:22 AM 4:26 PM
Waning Crescent, 1% visible
Pressure 30.40 in
Visibility 6.2 miles
Clouds Clear
Windchill 32 °F
Dew Point 37 °F
Humidity 96%
Rainfall 0.06 in
Snow Depth Not available.
UV 0 out of 12
Pollen Not available.
Air Quality Not available.
Flu Activity Not available.
METAR ETOU 210058Z AUTO 28008KT 9999 CLR 04/03 A3038 RMK AO2 RAE0009 SLP295 P0002 T00350029 $

More Conditions Fewer Conditions

Pressure 30.40 in
Visibility 6.2 miles
Clouds Clear
Windchill 32 °F
Dew Point 37 °F
Humidity 96%
Rainfall 0.06 in
Snow Depth Not available.
UV 0 out of 12
Pollen Not available.
Air Quality Not available.
Flu Activity Not available.
METAR ETOU 210058Z AUTO 28008KT 9999 CLR 04/03 A3038 RMK AO2 RAE0009 SLP295 P0002 T00350029 $

More Conditions Fewer Conditions

10-Day Weather Forecast

Almanac

Astronomy

Dec. 21, 2014 Rise Set
Actual Time
Civil Twilight
Nautical Twilight
Astronomical Twilight
Moon
Length of Visible Light
Length of Day
Tomorrow will be .
, % of the Moon is Illuminated

Today's Extremes

Country Highs Country Lows

Community

WunderPhotos

Upload Photos

1,779,335 photos uploaded!

WunderBlogs® & News

Nearby

Air Quality

  Air Quality AQ Index Pollutant
Not available.

Snow Depth

Station Depth Elevation

Earthquake Activity

City Distance Mag. Time & Date
Minimum magnitude displayed is 2.5.

Coastal Water Temperatures

Place Temperature

Nearby Weather Stations